Time;durP1;ratioP1;P1;durP2;ratioP2;P2;SDS_P1;SDS_P2;PMS_P1;PMS_P2;Temp;Humidity;BMP_temperature;BMP_pressure;BME280_temperature;BME280_humidity;BME280_pressure;Samples;Min_cycle;Max_cycle;Signal;HPM_P1;HPM_P2
2024/01/07 00:01:26;;;;;;;3.50;2.50;;;-1.40;98.90;;;;;;5033660;28;20180;-51
2024/01/07 00:03:52;;;;;;;7.03;3.17;;;-1.40;99.90;;;;;;5033437;28;20763;-50
2024/01/07 00:06:17;;;;;;;5.53;2.67;;;-1.50;99.90;;;;;;5034132;28;20592;-50
2024/01/07 00:08:43;;;;;;;5.00;3.40;;;-1.50;99.90;;;;;;5034038;28;21045;-50
2024/01/07 00:11:13;;;;;;;7.57;2.80;;;-1.50;99.90;;;;;;5033954;28;20235;-50
2024/01/07 00:13:39;;;;;;;3.47;2.67;;;-1.50;99.90;;;;;;5033607;28;20453;-51
2024/01/07 00:16:04;;;;;;;4.63;2.60;;;-1.60;99.90;;;;;;5033837;28;20826;-49
2024/01/07 00:18:30;;;;;;;3.90;2.10;;;-1.70;99.90;;;;;;5033102;28;20619;-49
2024/01/07 00:20:55;;;;;;;4.43;2.20;;;-1.70;99.90;;;;;;5033181;28;20640;-49
2024/01/07 00:23:21;;;;;;;4.40;2.70;;;-1.80;99.90;;;;;;5034411;28;20573;-50
2024/01/07 00:25:47;;;;;;;3.63;2.57;;;-1.90;99.90;;;;;;5033764;28;20584;-50
2024/01/07 00:28:13;;;;;;;4.50;2.63;;;-1.80;99.90;;;;;;5033350;28;20235;-50
2024/01/07 00:30:38;;;;;;;8.00;2.90;;;-1.80;99.90;;;;;;5033028;28;20422;-49
2024/01/07 00:33:04;;;;;;;7.10;2.70;;;-1.90;99.90;;;;;;5033696;28;20171;-49
2024/01/07 00:35:30;;;;;;;3.90;2.60;;;-2.00;99.90;;;;;;5033513;28;20282;-49
2024/01/07 00:37:56;;;;;;;4.43;2.73;;;-2.10;99.90;;;;;;5033335;28;20270;-50
2024/01/07 00:40:23;;;;;;;5.03;3.00;;;-2.10;99.90;;;;;;5033047;28;20213;-50
2024/01/07 00:42:48;;;;;;;3.37;2.70;;;-2.20;99.90;;;;;;5033535;28;20471;-50
2024/01/07 00:45:14;;;;;;;5.50;2.70;;;-2.20;99.90;;;;;;5032680;28;20418;-50
2024/01/07 00:47:39;;;;;;;3.30;2.83;;;-2.30;99.90;;;;;;5033665;28;20186;-49
2024/01/07 00:50:05;;;;;;;5.70;2.93;;;-2.30;99.90;;;;;;5033257;28;20217;-50
2024/01/07 00:52:31;;;;;;;7.00;2.90;;;-2.30;99.90;;;;;;5032825;28;20180;-50
2024/01/07 00:54:57;;;;;;;4.20;2.60;;;-2.30;99.90;;;;;;5032450;28;20219;-50
2024/01/07 00:57:22;;;;;;;3.63;2.37;;;-2.40;99.90;;;;;;5033292;28;20203;-50
2024/01/07 00:59:50;;;;;;;4.10;2.27;;;-2.40;99.90;;;;;;5033143;28;20210;-50
2024/01/07 01:02:15;;;;;;;5.80;2.73;;;-2.40;99.90;;;;;;5032986;28;20187;-50
2024/01/07 01:04:41;;;;;;;3.20;2.87;;;-2.40;99.90;;;;;;5032601;28;20768;-50
2024/01/07 01:07:07;;;;;;;3.47;3.10;;;-2.40;99.90;;;;;;5032279;28;20230;-49
2024/01/07 01:09:33;;;;;;;5.30;3.40;;;-2.40;99.90;;;;;;5033199;28;20268;-50
2024/01/07 01:11:59;;;;;;;3.00;2.50;;;-2.50;99.90;;;;;;5032507;28;20866;-50
2024/01/07 01:14:24;;;;;;;4.17;2.90;;;-2.50;99.90;;;;;;5033044;28;20628;-51
2024/01/07 01:16:50;;;;;;;7.93;2.80;;;-2.50;99.90;;;;;;5032661;28;20180;-50
2024/01/07 01:19:16;;;;;;;5.67;2.50;;;-2.60;99.90;;;;;;5032427;28;20243;-50
2024/01/07 01:21:42;;;;;;;5.50;2.83;;;-2.60;99.90;;;;;;5033047;28;20188;-50
2024/01/07 01:24:07;;;;;;;5.93;3.07;;;-2.60;99.90;;;;;;5032226;28;20474;-49
2024/01/07 01:26:33;;;;;;;3.67;2.80;;;-2.60;99.90;;;;;;5032040;28;20190;-49
2024/01/07 01:28:59;;;;;;;5.43;2.97;;;-2.60;99.90;;;;;;5032571;28;20186;-50
2024/01/07 01:31:24;;;;;;;4.63;3.03;;;-2.70;99.90;;;;;;5031634;28;20180;-51
2024/01/07 01:33:50;;;;;;;5.17;2.60;;;-2.70;99.90;;;;;;5031572;28;20187;-49
2024/01/07 01:36:15;;;;;;;3.33;2.80;;;-2.60;99.90;;;;;;5032364;28;20190;-50
2024/01/07 01:38:41;;;;;;;4.27;2.70;;;-2.60;99.90;;;;;;5031911;28;20203;-50
2024/01/07 01:41:06;;;;;;;4.80;3.03;;;-2.60;99.90;;;;;;5032501;28;20175;-50
2024/01/07 01:43:32;;;;;;;6.03;3.73;;;-2.70;99.90;;;;;;5032045;28;20211;-50
2024/01/07 01:45:58;;;;;;;4.33;3.40;;;-2.70;99.90;;;;;;5032084;28;20248;-50
2024/01/07 01:48:25;;;;;;;4.83;3.37;;;-2.70;99.90;;;;;;5032320;28;20705;-50
2024/01/07 01:50:54;;;;;;;3.73;3.03;;;-2.80;99.90;;;;;;5031899;28;20521;-50
2024/01/07 01:53:20;;;;;;;2.83;2.20;;;-2.70;99.90;;;;;;5032131;28;20415;-51
2024/01/07 01:55:46;;;;;;;4.07;2.80;;;-2.70;99.90;;;;;;5032578;28;20422;-50
2024/01/07 01:58:13;;;;;;;7.07;2.90;;;-2.70;99.90;;;;;;5031589;28;20418;-49
2024/01/07 02:00:39;;;;;;;3.87;2.57;;;-2.70;99.90;;;;;;5032124;28;20191;-49
2024/01/07 02:03:04;;;;;;;3.80;2.13;;;-2.70;99.90;;;;;;5032190;28;20419;-49
2024/01/07 02:05:30;;;;;;;9.50;2.80;;;-2.70;99.90;;;;;;5032258;28;20198;-50
2024/01/07 02:07:56;;;;;;;4.63;3.00;;;-2.60;99.90;;;;;;5031080;28;20661;-50
2024/01/07 02:10:22;;;;;;;4.97;2.50;;;-2.60;1.00;;;;;;5031341;28;20429;-50
2024/01/07 02:12:48;;;;;;;3.73;2.63;;;-2.50;1.00;;;;;;5031634;28;20214;-51
2024/01/07 02:15:14;;;;;;;3.63;2.53;;;-2.40;1.00;;;;;;5031906;28;20190;-50
2024/01/07 02:17:40;;;;;;;7.57;2.90;;;-2.40;99.90;;;;;;5031327;28;20442;-50
2024/01/07 02:20:06;;;;;;;3.20;2.50;;;-2.40;99.90;;;;;;5030973;28;20512;-50
2024/01/07 02:22:31;;;;;;;5.67;2.87;;;-2.30;99.90;;;;;;5031296;28;20187;-50
2024/01/07 02:24:57;;;;;;;5.20;2.57;;;-2.30;99.90;;;;;;5031220;28;20418;-51
2024/01/07 02:27:22;;;;;;;6.60;3.13;;;-2.20;99.90;;;;;;5031912;28;20186;-51
2024/01/07 02:29:48;;;;;;;4.53;2.70;;;-2.10;99.90;;;;;;5032088;28;20632;-50
2024/01/07 02:32:13;;;;;;;4.27;2.53;;;-2.00;99.90;;;;;;5031689;28;20184;-50
2024/01/07 02:34:39;;;;;;;5.07;3.00;;;-2.00;99.90;;;;;;5031100;28;20604;-50
2024/01/07 02:37:04;;;;;;;5.50;2.83;;;-2.00;99.90;;;;;;5031254;28;20589;-50
2024/01/07 02:39:30;;;;;;;5.70;3.50;;;-1.90;99.90;;;;;;5032054;28;20218;-50
2024/01/07 02:41:56;;;;;;;4.40;3.27;;;-1.80;99.90;;;;;;5030866;28;20190;-50
2024/01/07 02:44:21;;;;;;;5.17;3.17;;;-1.80;99.90;;;;;;5034810;28;20187;-50
2024/01/07 02:46:47;;;;;;;9.90;3.10;;;-1.80;99.90;;;;;;5035095;28;20636;-50
2024/01/07 02:49:13;;;;;;;4.33;2.43;;;-1.80;99.90;;;;;;5035048;28;20266;-51
2024/01/07 02:51:39;;;;;;;4.03;2.90;;;-1.70;99.90;;;;;;5035706;28;20194;-50
2024/01/07 02:54:04;;;;;;;3.00;2.53;;;-1.60;99.90;;;;;;5035531;28;20411;-50
2024/01/07 02:56:30;;;;;;;5.37;2.60;;;-1.60;99.90;;;;;;5035307;28;20190;-50
2024/01/07 02:58:55;;;;;;;3.03;2.40;;;-1.50;99.90;;;;;;5034770;28;20202;-51
2024/01/07 03:01:24;;;;;;;3.57;2.30;;;-1.50;99.90;;;;;;5035011;28;20210;-50
2024/01/07 03:03:50;;;;;;;3.37;2.50;;;-1.40;99.90;;;;;;5035515;28;20187;-50
2024/01/07 03:06:15;;;;;;;3.70;2.63;;;-1.40;99.90;;;;;;5034482;28;20921;-51
2024/01/07 03:08:42;;;;;;;5.53;2.90;;;-1.40;99.90;;;;;;5034231;28;20172;-50
2024/01/07 03:11:08;;;;;;;4.57;2.40;;;-1.40;99.90;;;;;;5035332;28;20188;-50
2024/01/07 03:13:33;;;;;;;3.20;2.60;;;-1.40;99.90;;;;;;5034423;28;20728;-50
2024/01/07 03:15:59;;;;;;;3.87;2.30;;;-1.40;99.90;;;;;;5035250;28;20176;-50
2024/01/07 03:18:26;;;;;;;4.07;2.30;;;-1.30;99.90;;;;;;5035282;28;20211;-52
2024/01/07 03:20:51;;;;;;;4.33;2.47;;;-1.40;99.90;;;;;;5034864;28;20591;-50
2024/01/07 03:23:18;;;;;;;3.83;2.30;;;-1.30;99.90;;;;;;5034474;28;20418;-50
2024/01/07 03:25:44;;;;;;;3.87;2.40;;;-1.20;99.90;;;;;;5034781;28;20195;-50
2024/01/07 03:28:09;;;;;;;5.03;2.50;;;-1.20;99.90;;;;;;5034492;28;20420;-50
2024/01/07 03:30:35;;;;;;;6.00;2.23;;;-1.20;99.90;;;;;;5034398;28;20185;-49
2024/01/07 03:33:00;;;;;;;2.40;1.90;;;-1.10;99.90;;;;;;5034607;28;20175;-50
2024/01/07 03:35:27;;;;;;;2.90;2.07;;;-1.10;99.90;;;;;;5034173;28;20185;-51
2024/01/07 03:37:52;;;;;;;2.30;2.10;;;-1.10;99.90;;;;;;5034141;28;20195;-51
2024/01/07 03:40:18;;;;;;;3.40;2.20;;;-1.00;99.90;;;;;;5034160;28;20512;-51
2024/01/07 03:42:44;;;;;;;3.67;1.80;;;-1.10;99.90;;;;;;5034580;28;20240;-51
2024/01/07 03:45:09;;;;;;;7.20;2.57;;;-1.00;99.90;;;;;;5034413;28;20183;-51
2024/01/07 03:47:35;;;;;;;3.33;2.30;;;-1.00;99.90;;;;;;5033982;28;20179;-50
2024/01/07 03:50:00;;;;;;;2.90;2.00;;;-1.00;99.90;;;;;;5033703;28;20259;-50
2024/01/07 03:52:26;;;;;;;3.20;1.70;;;-1.00;99.90;;;;;;5034562;28;20198;-50
2024/01/07 03:54:52;;;;;;;8.60;2.13;;;-0.90;99.90;;;;;;5032964;28;20274;-50
2024/01/07 03:57:17;;;;;;;6.53;2.70;;;-0.90;99.90;;;;;;5034297;28;20709;-50
2024/01/07 03:59:43;;;;;;;2.93;2.03;;;-0.90;99.90;;;;;;5034186;28;20210;-50
2024/01/07 04:02:09;;;;;;;3.83;2.10;;;-0.90;99.20;;;;;;5034199;28;20183;-49
2024/01/07 04:04:35;;;;;;;4.03;2.33;;;-0.90;95.00;;;;;;5033195;28;20194;-49
2024/01/07 04:07:01;;;;;;;3.10;1.97;;;-0.80;81.00;;;;;;5033300;28;20478;-50
2024/01/07 04:09:26;;;;;;;4.00;2.30;;;-0.80;70.20;;;;;;5033591;28;20425;-50
2024/01/07 04:11:52;;;;;;;3.83;2.13;;;-0.80;72.00;;;;;;5034314;28;20207;-50
2024/01/07 04:14:18;;;;;;;3.97;2.30;;;-0.80;59.10;;;;;;5033625;28;20188;-50
2024/01/07 04:16:43;;;;;;;4.77;2.60;;;-0.70;49.10;;;;;;5033735;28;20578;-49
2024/01/07 04:19:09;;;;;;;5.40;2.20;;;-0.70;43.00;;;;;;5033649;28;20678;-49
2024/01/07 04:21:35;;;;;;;3.10;2.20;;;-0.70;35.20;;;;;;5033451;28;20175;-49
2024/01/07 04:24:01;;;;;;;5.20;1.97;;;-0.60;23.60;;;;;;5033763;28;20199;-49
2024/01/07 04:26:26;;;;;;;7.20;2.10;;;-0.50;11.00;;;;;;5033038;28;20422;-50
2024/01/07 04:28:52;;;;;;;2.27;1.80;;;-0.50;11.10;;;;;;5034212;28;20186;-49
2024/01/07 04:31:18;;;;;;;2.57;1.90;;;-0.50;20.40;;;;;;5033663;28;20178;-51
2024/01/07 04:33:43;;;;;;;3.43;1.80;;;-0.50;5.10;;;;;;5032978;28;20188;-50
2024/01/07 04:36:09;;;;;;;2.73;1.53;;;-0.50;1.00;;;;;;5032735;28;20552;-50
2024/01/07 04:38:35;;;;;;;3.63;1.40;;;-0.40;1.00;;;;;;5033774;28;20203;-50
2024/01/07 04:41:01;;;;;;;2.40;1.60;;;-0.40;1.00;;;;;;5033401;28;20743;-50
2024/01/07 04:43:26;;;;;;;2.03;1.30;;;-0.30;1.00;;;;;;5032867;28;20262;-49
2024/01/07 04:45:52;;;;;;;5.03;2.00;;;-0.30;1.00;;;;;;5033355;28;20257;-49
2024/01/07 04:48:17;;;;;;;3.17;1.57;;;-0.30;1.00;;;;;;5032729;28;20209;-51
2024/01/07 04:50:43;;;;;;;2.40;1.50;;;-0.30;1.00;;;;;;5033337;28;20290;-50
2024/01/07 04:53:09;;;;;;;1.87;1.67;;;-0.30;1.00;;;;;;5033300;28;20207;-49
2024/01/07 04:55:34;;;;;;;2.70;1.50;;;-0.30;1.00;;;;;;5033394;28;20266;-50
2024/01/07 04:58:01;;;;;;;2.03;1.80;;;-0.20;1.00;;;;;;5032639;28;20210;-49
2024/01/07 05:00:27;;;;;;;2.43;1.77;;;-0.20;1.00;;;;;;5033198;28;20302;-50
2024/01/07 05:02:52;;;;;;;7.00;1.63;;;-0.30;1.00;;;;;;5032892;28;20511;-49
2024/01/07 05:05:18;;;;;;;3.13;1.83;;;-0.40;1.00;;;;;;5032945;28;20241;-49
2024/01/07 05:07:43;;;;;;;4.30;1.50;;;-0.30;1.00;;;;;;5032508;28;20326;-49
2024/01/07 05:10:09;;;;;;;2.60;1.97;;;-0.30;1.00;;;;;;5031944;28;20206;-50
2024/01/07 05:12:35;;;;;;;3.73;1.43;;;-0.30;1.00;;;;;;5033244;28;20191;-50
2024/01/07 05:15:00;;;;;;;2.60;1.53;;;-0.20;1.00;;;;;;5032329;28;20198;-50
2024/01/07 05:17:26;;;;;;;2.10;1.30;;;-0.30;1.00;;;;;;5032965;28;20233;-51
2024/01/07 05:19:51;;;;;;;1.93;1.63;;;-0.30;1.00;;;;;;5031664;28;20286;-50
2024/01/07 05:22:17;;;;;;;3.77;1.60;;;-0.30;1.00;;;;;;5032340;28;20542;-50
2024/01/07 05:24:42;;;;;;;3.10;1.83;;;-0.30;1.00;;;;;;5032759;28;20593;-50
2024/01/07 05:27:09;;;;;;;2.70;1.67;;;-0.30;1.00;;;;;;5032511;28;20171;-49
2024/01/07 05:29:34;;;;;;;1.90;1.40;;;-0.30;1.00;;;;;;5032045;28;20661;-50
2024/01/07 05:32:01;;;;;;;2.23;1.60;;;-0.30;1.00;;;;;;5032188;28;20508;-50
2024/01/07 05:34:27;;;;;;;3.70;1.33;;;-0.30;1.00;;;;;;5032592;28;20186;-50
2024/01/07 05:36:53;;;;;;;2.30;1.80;;;-0.30;1.00;;;;;;5032357;28;20414;-49
2024/01/07 05:39:19;;;;;;;2.33;1.60;;;-0.40;1.00;;;;;;5031749;28;20458;-50
2024/01/07 05:41:45;;;;;;;2.50;1.80;;;-0.40;1.00;;;;;;5032366;28;20179;-50
2024/01/07 05:44:11;;;;;;;2.90;1.97;;;-0.40;1.00;;;;;;5031803;28;20605;-49
2024/01/07 05:46:41;;;;;;;3.33;3.00;;;-0.40;1.00;;;;;;5031324;28;20187;-50
2024/01/07 05:49:07;;;;;;;2.53;1.60;;;-0.40;1.00;;;;;;5032343;28;20982;-49
2024/01/07 05:51:33;;;;;;;2.40;1.80;;;-0.40;1.00;;;;;;5032016;28;20457;-50
2024/01/07 05:53:59;;;;;;;2.10;1.60;;;-0.50;1.00;;;;;;5031538;28;20457;-51
2024/01/07 05:56:24;;;;;;;5.00;1.80;;;-0.50;1.00;;;;;;5032221;28;20655;-51
2024/01/07 05:58:50;;;;;;;3.07;1.83;;;-0.50;1.00;;;;;;5031642;28;20211;-50
2024/01/07 06:01:22;;;;;;;5.03;2.27;;;-0.50;12.10;;;;;;5031538;28;20184;-50
2024/01/07 06:03:48;;;;;;;3.00;1.90;;;-0.50;23.60;;;;;;5031889;28;20192;-50
2024/01/07 06:06:14;;;;;;;3.53;2.00;;;-0.50;28.20;;;;;;5031432;28;20417;-50
2024/01/07 06:08:42;;;;;;;3.00;2.20;;;-0.50;32.20;;;;;;5032174;28;20476;-50
2024/01/07 06:11:08;;;;;;;3.00;2.23;;;-0.50;41.20;;;;;;5031438;28;20410;-50
2024/01/07 06:13:33;;;;;;;2.27;2.00;;;-0.50;43.20;;;;;;5032307;28;20443;-51
2024/01/07 06:15:59;;;;;;;7.33;2.80;;;-0.50;44.90;;;;;;5032010;28;20449;-50
2024/01/07 06:18:25;;;;;;;3.07;2.40;;;-0.60;45.10;;;;;;5031571;28;20183;-52
2024/01/07 06:20:50;;;;;;;3.10;2.00;;;-0.60;52.40;;;;;;5031191;28;20294;-50
2024/01/07 06:23:16;;;;;;;2.97;2.30;;;-0.70;65.70;;;;;;5031561;28;20229;-50
2024/01/07 06:25:41;;;;;;;4.13;2.80;;;-0.70;79.20;;;;;;5031588;28;20171;-50
2024/01/07 06:28:07;;;;;;;3.43;2.50;;;-0.70;91.20;;;;;;5031922;28;20191;-50
2024/01/07 06:30:33;;;;;;;3.20;2.30;;;-0.70;99.10;;;;;;5030938;28;20194;-50
2024/01/07 06:32:59;;;;;;;3.00;2.40;;;-0.80;99.90;;;;;;5031848;28;20298;-50
2024/01/07 06:35:24;;;;;;;4.27;2.53;;;-0.70;99.90;;;;;;5031388;28;20893;-51
2024/01/07 06:37:50;;;;;;;5.23;2.73;;;-0.70;99.90;;;;;;5032152;28;20194;-50
2024/01/07 06:40:16;;;;;;;3.47;2.30;;;-0.80;99.90;;;;;;5031604;28;20230;-50
2024/01/07 06:42:43;;;;;;;4.60;2.37;;;-0.80;99.90;;;;;;5031535;28;20642;-50
2024/01/07 06:45:09;;;;;;;4.70;2.73;;;-0.80;99.90;;;;;;5031649;28;20659;-50
2024/01/07 06:47:35;;;;;;;5.47;2.63;;;-0.90;99.90;;;;;;5030977;28;20495;-50
2024/01/07 06:50:00;;;;;;;5.63;2.60;;;-0.90;99.90;;;;;;5031186;28;20183;-50
2024/01/07 06:52:26;;;;;;;3.10;2.20;;;-0.90;99.90;;;;;;5031167;28;20183;-51
2024/01/07 06:54:51;;;;;;;3.63;2.53;;;-0.90;99.90;;;;;;5031472;28;20180;-50
2024/01/07 06:57:17;;;;;;;6.20;2.97;;;-0.80;99.90;;;;;;5031447;28;20620;-50
2024/01/07 06:59:42;;;;;;;6.40;3.07;;;-0.80;99.90;;;;;;5031182;28;20280;-50
2024/01/07 07:02:08;;;;;;;4.20;2.90;;;-0.70;99.90;;;;;;5030935;28;20186;-50
2024/01/07 07:04:33;;;;;;;9.23;2.87;;;-0.70;99.90;;;;;;5031035;28;20176;-50
2024/01/07 07:07:00;;;;;;;5.03;3.53;;;-0.60;99.90;;;;;;5031426;28;20251;-50
2024/01/07 07:09:25;;;;;;;7.40;3.70;;;-0.60;99.90;;;;;;5031444;28;20245;-51
2024/01/07 07:11:51;;;;;;;4.70;3.90;;;-0.60;99.90;;;;;;5031172;28;20418;-50
2024/01/07 07:14:16;;;;;;;5.50;3.67;;;-0.60;99.90;;;;;;5030567;28;20184;-50
2024/01/07 07:16:42;;;;;;;4.17;3.23;;;-0.60;99.90;;;;;;5031333;28;20179;-50
2024/01/07 07:19:08;;;;;;;7.43;3.50;;;-0.60;99.90;;;;;;5031171;28;20652;-50
2024/01/07 07:21:33;;;;;;;6.43;3.80;;;-0.60;99.90;;;;;;5031121;28;20657;-50
2024/01/07 07:23:59;;;;;;;5.53;3.63;;;-0.60;99.90;;;;;;5030713;28;20176;-51
2024/01/07 07:26:24;;;;;;;9.70;3.97;;;-0.60;99.90;;;;;;5031010;28;20203;-55
2024/01/07 07:28:50;;;;;;;6.63;4.53;;;-0.50;99.90;;;;;;5031342;28;20614;-50
2024/01/07 07:31:15;;;;;;;8.53;4.50;;;-0.50;99.90;;;;;;5033308;28;20665;-51
2024/01/07 07:33:41;;;;;;;7.33;4.00;;;-0.50;99.90;;;;;;5034851;28;20183;-50
2024/01/07 07:36:07;;;;;;;9.10;4.23;;;-0.50;99.90;;;;;;5034596;28;20220;-50
2024/01/07 07:38:33;;;;;;;8.93;4.60;;;-0.50;1.00;;;;;;5034395;28;20218;-50
2024/01/07 07:41:00;;;;;;;6.40;4.27;;;-0.40;1.00;;;;;;5033847;28;20799;-50
2024/01/07 07:43:26;;;;;;;7.80;4.30;;;-0.40;1.00;;;;;;5034039;28;20186;-51
2024/01/07 07:45:51;;;;;;;6.90;4.00;;;-0.50;1.00;;;;;;5034386;28;20431;-50
2024/01/07 07:48:18;;;;;;;8.73;4.80;;;-0.40;1.00;;;;;;5034283;28;20414;-50
2024/01/07 07:50:43;;;;;;;10.83;5.03;;;-0.50;1.00;;;;;;5034028;28;20631;-52
2024/01/07 07:53:09;;;;;;;14.33;4.97;;;-0.50;1.00;;;;;;5034113;28;20417;-49
2024/01/07 07:55:35;;;;;;;6.10;4.33;;;-0.50;1.00;;;;;;5034461;28;20667;-51
2024/01/07 07:58:00;;;;;;;13.67;4.80;;;-0.50;1.00;;;;;;5034716;28;20180;-50
2024/01/07 08:00:26;;;;;;;13.27;4.67;;;-0.50;1.00;;;;;;5033231;28;20663;-51
2024/01/07 08:02:51;;;;;;;8.83;4.40;;;-0.50;1.00;;;;;;5033146;28;20184;-50
2024/01/07 08:05:17;;;;;;;9.00;4.40;;;-0.60;1.00;;;;;;5034455;28;20183;-50
2024/01/07 08:07:43;;;;;;;7.83;4.93;;;-0.70;99.90;;;;;;5034363;28;20239;-50
2024/01/07 08:10:09;;;;;;;7.90;4.10;;;-0.70;99.90;;;;;;5034367;28;20218;-50
2024/01/07 08:12:34;;;;;;;10.47;4.50;;;-0.80;99.90;;;;;;5032812;28;20191;-50
2024/01/07 08:15:00;;;;;;;15.10;4.60;;;-0.80;99.90;;;;;;5033432;28;20422;-50
2024/01/07 08:17:26;;;;;;;7.70;4.30;;;-0.90;99.90;;;;;;5034070;28;20176;-50
2024/01/07 08:19:52;;;;;;;5.80;4.17;;;-0.90;99.90;;;;;;5034054;28;20210;-50
2024/01/07 08:22:18;;;;;;;9.73;4.37;;;-0.90;99.90;;;;;;5033691;28;20634;-49
2024/01/07 08:24:44;;;;;;;7.43;4.33;;;-0.90;99.90;;;;;;5033133;28;20433;-50
2024/01/07 08:27:09;;;;;;;7.07;4.17;;;-0.90;99.90;;;;;;5033362;28;20415;-49
2024/01/07 08:29:35;;;;;;;9.33;4.33;;;-0.90;99.90;;;;;;5032796;28;20187;-50
2024/01/07 08:32:01;;;;;;;8.37;4.40;;;-0.90;99.90;;;;;;5033993;28;20342;-50
2024/01/07 08:34:26;;;;;;;4.73;3.60;;;-0.80;99.90;;;;;;5032994;28;20182;-50
2024/01/07 08:36:53;;;;;;;6.50;3.57;;;-0.90;99.90;;;;;;5033800;28;20179;-49
2024/01/07 08:39:19;;;;;;;5.87;4.07;;;-1.00;99.90;;;;;;5033159;28;20225;-51
2024/01/07 08:41:45;;;;;;;6.70;3.87;;;-1.00;99.90;;;;;;5032882;28;20419;-49
2024/01/07 08:44:11;;;;;;;5.07;3.83;;;-1.10;99.90;;;;;;5033077;28;20183;-50
2024/01/07 08:46:36;;;;;;;6.53;4.40;;;-0.90;99.90;;;;;;5033618;28;20263;-49
2024/01/07 08:49:03;;;;;;;8.00;4.70;;;-0.90;99.90;;;;;;5032943;28;20184;-49
2024/01/07 08:51:29;;;;;;;6.40;4.00;;;-0.90;99.90;;;;;;5033193;28;20188;-49
2024/01/07 08:53:55;;;;;;;12.17;3.90;;;-0.90;99.90;;;;;;5032753;28;20484;-50
2024/01/07 08:56:20;;;;;;;6.63;3.20;;;-0.90;99.90;;;;;;5033680;28;20446;-48
2024/01/07 08:58:46;;;;;;;9.00;4.20;;;-0.90;99.90;;;;;;5032751;28;20880;-49
2024/01/07 09:01:14;;;;;;;6.27;3.90;;;-1.00;99.90;;;;;;5032906;28;20233;-49
2024/01/07 09:03:40;;;;;;;5.07;3.40;;;-1.00;99.90;;;;;;5032202;28;20188;-49
2024/01/07 09:06:05;;;;;;;5.03;3.50;;;-1.00;99.90;;;;;;5033243;28;20406;-49
2024/01/07 09:08:31;;;;;;;7.10;3.47;;;-1.10;99.90;;;;;;5032441;28;20445;-49
2024/01/07 09:10:57;;;;;;;7.80;3.77;;;-1.20;99.90;;;;;;5033172;28;20654;-49
2024/01/07 09:13:22;;;;;;;7.53;4.07;;;-1.10;99.90;;;;;;5032243;28;20551;-48
2024/01/07 09:15:48;;;;;;;5.13;3.23;;;-1.10;99.90;;;;;;5033334;28;20179;-48
2024/01/07 09:18:14;;;;;;;7.80;2.93;;;-0.90;99.90;;;;;;5031788;28;20353;-48
2024/01/07 09:20:39;;;;;;;6.63;3.73;;;-0.70;99.90;;;;;;5032915;28;20249;-48
2024/01/07 09:23:05;;;;;;;4.93;3.60;;;-0.60;99.90;;;;;;5032708;28;20176;-48
2024/01/07 09:25:30;;;;;;;4.70;3.53;;;-0.50;99.90;;;;;;5032538;28;20262;-48
2024/01/07 09:27:56;;;;;;;7.97;3.20;;;-0.50;95.70;;;;;;5032127;28;20229;-49
2024/01/07 09:30:22;;;;;;;5.23;3.47;;;-0.50;87.80;;;;;;5032438;28;20187;-49
2024/01/07 09:32:47;;;;;;;7.30;3.60;;;-0.60;72.80;;;;;;5032431;28;20184;-48
2024/01/07 09:35:13;;;;;;;6.03;3.70;;;-0.60;87.50;;;;;;5032812;28;20182;-48
2024/01/07 09:37:38;;;;;;;9.63;4.50;;;-0.60;59.90;;;;;;5031815;28;20640;-48
2024/01/07 09:40:05;;;;;;;8.27;4.33;;;-0.60;39.00;;;;;;5031704;28;20536;-48
2024/01/07 09:42:31;;;;;;;9.13;3.50;;;-0.70;21.20;;;;;;5032362;28;20201;-49
2024/01/07 09:45:02;;;;;;;9.40;4.33;;;-0.90;23.40;;;;;;5032682;28;20410;-49
2024/01/07 09:47:28;;;;;;;8.10;3.80;;;-0.90;23.50;;;;;;5032192;28;20414;-49
2024/01/07 09:49:53;;;;;;;8.00;3.93;;;-0.90;25.80;;;;;;5032173;28;20429;-49
2024/01/07 09:52:20;;;;;;;6.90;4.17;;;-0.90;26.20;;;;;;5031100;28;20221;-49
2024/01/07 09:54:51;;;;;;;12.23;4.13;;;-0.80;31.70;;;;;;5031828;28;20176;-49
2024/01/07 09:57:16;;;;;;;6.80;4.03;;;-0.80;26.90;;;;;;5031935;28;20414;-49
2024/01/07 09:59:42;;;;;;;7.03;3.77;;;-0.70;17.90;;;;;;5032002;28;20463;-49
2024/01/07 10:02:07;;;;;;;6.40;4.13;;;-0.60;16.70;;;;;;5031846;28;20270;-48
2024/01/07 10:04:33;;;;;;;6.70;4.00;;;-0.50;12.00;;;;;;5031792;28;20540;-48
2024/01/07 10:06:59;;;;;;;7.13;4.10;;;-0.40;9.30;;;;;;5031896;28;20270;-48
2024/01/07 10:09:28;;;;;;;5.53;3.30;;;-0.30;6.20;;;;;;5031880;28;20216;-50
2024/01/07 10:11:54;;;;;;;7.00;3.80;;;-0.20;1.00;;;;;;5031612;28;20188;-48
2024/01/07 10:14:23;;;;;;;6.30;3.50;;;-0.30;1.00;;;;;;5032565;28;20429;-50
2024/01/07 10:16:50;;;;;;;7.43;3.80;;;-0.40;1.00;;;;;;5031747;28;20237;-49
2024/01/07 10:19:23;;;;;;;6.67;4.30;;;-0.40;1.00;;;;;;5031875;28;20462;-49
2024/01/07 10:22:02;;;;;;;6.40;3.67;;;-0.50;1.00;;;;;;5031035;28;20937;-50
2024/01/07 10:24:37;;;;;;;5.47;3.67;;;-0.60;1.00;;;;;;5031438;28;20453;-48
2024/01/07 10:27:03;;;;;;;5.97;3.67;;;-0.60;1.00;;;;;;5031456;28;20779;-49
2024/01/07 10:29:29;;;;;;;5.73;3.43;;;-0.30;1.00;;;;;;5030984;28;20930;-48
2024/01/07 10:31:58;;;;;;;6.77;3.97;;;0.00;1.00;;;;;;5031729;28;20498;-49
2024/01/07 10:34:24;;;;;;;7.30;3.67;;;0.30;1.00;;;;;;5031861;28;20205;-48
2024/01/07 10:36:54;;;;;;;10.63;4.20;;;0.60;1.00;;;;;;5031696;28;20418;-48
2024/01/07 10:39:20;;;;;;;6.10;4.20;;;1.10;1.00;;;;;;5031429;28;20465;-49
2024/01/07 10:41:47;;;;;;;7.10;4.70;;;1.70;1.00;;;;;;5032011;28;20422;-50
2024/01/07 10:44:13;;;;;;;4.83;3.60;;;2.00;1.00;;;;;;5031727;28;20184;-49
2024/01/07 10:46:40;;;;;;;4.57;3.40;;;2.40;1.00;;;;;;5031496;28;20482;-50
2024/01/07 10:49:23;;;;;;;6.00;3.27;;;3.30;1.00;;;;;;5030215;28;20803;-51
2024/01/07 10:52:08;;;;;;;5.60;3.20;;;3.70;1.00;;;;;;5031167;28;20937;-49
2024/01/07 10:54:35;;;;;;;9.33;3.77;;;3.80;1.00;;;;;;5031729;28;20429;-50
2024/01/07 10:57:20;;;;;;;13.97;3.17;;;4.30;1.00;;;;;;5031856;28;20445;-49
2024/01/07 10:59:48;;;;;;;5.27;3.17;;;4.20;1.00;;;;;;5030853;28;20449;-50
2024/01/07 11:02:13;;;;;;;6.47;2.93;;;4.00;1.00;;;;;;5030786;28;20815;-48
2024/01/07 11:04:45;;;;;;;4.57;3.00;;;3.40;1.00;;;;;;5033782;28;20421;-48
2024/01/07 11:07:23;;;;;;;4.87;3.37;;;3.10;1.00;;;;;;5034623;28;20238;-48
2024/01/07 11:10:03;;;;;;;5.60;3.33;;;2.90;1.00;;;;;;5035884;28;20771;-49
2024/01/07 11:12:30;;;;;;;5.00;3.23;;;3.10;1.00;;;;;;5034814;28;20498;-49
2024/01/07 11:14:56;;;;;;;4.30;3.23;;;4.80;1.00;;;;;;5034829;28;20422;-50
2024/01/07 11:17:42;;;;;;;6.67;3.20;;;6.80;1.00;;;;;;5034778;28;20432;-49
2024/01/07 11:20:14;;;;;;;7.03;2.97;;;7.90;1.00;;;;;;5034650;28;20556;-48
2024/01/07 11:22:39;;;;;;;5.53;3.30;;;7.30;1.00;;;;;;5035180;28;20410;-47
2024/01/07 11:25:29;;;;;;;7.07;4.07;;;6.30;1.00;;;;;;5034059;28;21064;-48
2024/01/07 11:28:01;;;;;;;4.43;2.87;;;5.50;1.00;;;;;;5035144;28;20632;-49
2024/01/07 11:30:27;;;;;;;3.37;3.07;;;5.00;1.00;;;;;;5034659;28;20476;-49
2024/01/07 11:33:00;;;;;;;5.43;2.97;;;4.90;1.00;;;;;;5034678;28;20775;-48
2024/01/07 11:35:58;;;;;;;3.87;3.10;;;5.40;1.00;;;;;;5034747;28;20179;-48
2024/01/07 11:38:24;;;;;;;4.83;3.00;;;6.10;1.00;;;;;;5035188;28;20462;-48
2024/01/07 11:40:51;;;;;;;6.30;2.80;;;6.50;1.00;;;;;;5034480;28;20418;-48
2024/01/07 11:43:16;;;;;;;4.27;3.00;;;6.30;1.00;;;;;;5033918;28;20201;-48
2024/01/07 11:45:42;;;;;;;4.13;3.00;;;6.40;1.00;;;;;;5034700;28;20421;-48
2024/01/07 11:48:08;;;;;;;3.13;2.70;;;6.30;1.00;;;;;;5034153;28;20321;-49
2024/01/07 11:50:35;;;;;;;7.47;3.43;;;5.70;1.00;;;;;;5034258;28;20267;-49
2024/01/07 11:53:01;;;;;;;5.00;3.20;;;5.40;1.00;;;;;;5034326;28;20588;-49
2024/01/07 11:55:28;;;;;;;4.57;2.90;;;5.00;1.00;;;;;;5033909;28;20509;-49
2024/01/07 11:57:55;;;;;;;5.03;3.40;;;4.90;1.00;;;;;;5034214;28;20635;-48
2024/01/07 12:00:21;;;;;;;3.90;2.73;;;4.90;1.00;;;;;;5034160;28;20462;-48
2024/01/07 12:02:47;;;;;;;4.57;2.87;;;4.60;1.00;;;;;;5034399;28;20905;-48
2024/01/07 12:05:15;;;;;;;6.13;2.80;;;4.20;1.00;;;;;;5035432;28;20465;-47
2024/01/07 12:07:42;;;;;;;10.23;3.60;;;3.70;1.00;;;;;;5033758;28;20242;-48
2024/01/07 12:10:11;;;;;;;3.73;2.93;;;3.30;1.00;;;;;;5035413;28;20831;-48
2024/01/07 12:12:42;;;;;;;6.60;3.80;;;3.70;1.00;;;;;;5035404;28;20421;-48
2024/01/07 12:15:13;;;;;;;4.07;2.60;;;4.80;1.00;;;;;;5035042;28;20403;-49
2024/01/07 12:17:41;;;;;;;4.23;3.23;;;6.00;1.00;;;;;;5034704;28;20429;-49
2024/01/07 12:20:08;;;;;;;5.70;2.77;;;6.50;1.00;;;;;;5034856;28;20998;-49
2024/01/07 12:22:38;;;;;;;4.67;2.80;;;7.20;1.00;;;;;;5035107;28;20430;-49
2024/01/07 12:25:06;;;;;;;2.97;2.67;;;8.40;1.00;;;;;;5034800;28;20410;-49
2024/01/07 12:27:31;;;;;;;4.53;3.00;;;9.40;1.00;;;;;;5034791;28;20953;-49
2024/01/07 12:29:58;;;;;;;4.00;2.90;;;10.00;1.00;;;;;;5034862;28;20418;-49
2024/01/07 12:32:26;;;;;;;4.70;3.20;;;10.00;1.00;;;;;;5034824;28;20202;-48
2024/01/07 12:34:52;;;;;;;4.27;3.00;;;9.50;1.00;;;;;;5034578;28;20944;-48
2024/01/07 12:37:17;;;;;;;4.00;2.50;;;8.50;1.00;;;;;;5034633;28;20414;-48
2024/01/07 12:39:43;;;;;;;4.27;2.53;;;7.80;1.00;;;;;;5034431;28;20207;-49
2024/01/07 12:42:09;;;;;;;4.17;2.63;;;7.10;1.00;;;;;;5034671;28;20302;-48
2024/01/07 12:44:36;;;;;;;3.80;2.57;;;7.10;1.00;;;;;;5034854;28;20187;-49
2024/01/07 12:47:03;;;;;;;3.63;2.33;;;8.00;1.00;;;;;;5034865;28;20187;-48
2024/01/07 12:49:28;;;;;;;4.13;2.90;;;9.20;1.00;;;;;;5034774;28;20423;-49